sensor_id;sensor_type;location;lat;lon;timestamp;pressure;altitude;pressure_sealevel;temperature;humidity
34243;BME280;20504;43.214;27.920;2023-03-04T00:01:32;93232.28;;;9.71;100.00
34243;BME280;20504;43.214;27.920;2023-03-04T00:03:57;93178.56;;;9.81;100.00
34243;BME280;20504;43.214;27.920;2023-03-04T00:06:23;93177.50;;;9.82;100.00
34243;BME280;20504;43.214;27.920;2023-03-04T00:08:49;93251.53;;;9.77;100.00
34243;BME280;20504;43.214;27.920;2023-03-04T00:11:14;93304.63;;;9.91;100.00
34243;BME280;20504;43.214;27.920;2023-03-04T00:13:40;93356.47;;;9.66;100.00
34243;BME280;20504;43.214;27.920;2023-03-04T00:16:05;93415.16;;;9.38;100.00
34243;BME280;20504;43.214;27.920;2023-03-04T00:18:31;93433.66;;;9.68;100.00
34243;BME280;20504;43.214;27.920;2023-03-04T00:20:56;93446.34;;;9.56;100.00
34243;BME280;20504;43.214;27.920;2023-03-04T00:23:22;93405.09;;;9.65;100.00
34243;BME280;20504;43.214;27.920;2023-03-04T00:25:47;93434.44;;;9.59;100.00
34243;BME280;20504;43.214;27.920;2023-03-04T00:28:13;93593.78;;;9.54;100.00
34243;BME280;20504;43.214;27.920;2023-03-04T00:30:38;93644.22;;;9.48;100.00
34243;BME280;20504;43.214;27.920;2023-03-04T00:33:04;93698.00;;;9.21;100.00
34243;BME280;20504;43.214;27.920;2023-03-04T00:35:29;93651.25;;;9.27;100.00
34243;BME280;20504;43.214;27.920;2023-03-04T00:37:54;93601.59;;;9.29;100.00
34243;BME280;20504;43.214;27.920;2023-03-04T00:40:20;93509.47;;;9.37;100.00
34243;BME280;20504;43.214;27.920;2023-03-04T00:42:45;93398.53;;;9.32;100.00
34243;BME280;20504;43.214;27.920;2023-03-04T00:45:11;93229.97;;;9.50;100.00
34243;BME280;20504;43.214;27.920;2023-03-04T00:47:36;93152.00;;;9.57;100.00
34243;BME280;20504;43.214;27.920;2023-03-04T00:50:02;93072.41;;;9.64;100.00
34243;BME280;20504;43.214;27.920;2023-03-04T00:52:27;93021.19;;;9.60;100.00
34243;BME280;20504;43.214;27.920;2023-03-04T00:54:53;92944.00;;;9.63;100.00
34243;BME280;20504;43.214;27.920;2023-03-04T00:57:18;92924.03;;;9.52;100.00
34243;BME280;20504;43.214;27.920;2023-03-04T00:59:44;92878.34;;;9.46;100.00
34243;BME280;20504;43.214;27.920;2023-03-04T01:02:11;92830.50;;;9.53;100.00
34243;BME280;20504;43.214;27.920;2023-03-04T01:04:37;92782.66;;;9.30;100.00
34243;BME280;20504;43.214;27.920;2023-03-04T01:07:02;92725.09;;;9.27;100.00
34243;BME280;20504;43.214;27.920;2023-03-04T01:09:28;92610.28;;;9.44;100.00
34243;BME280;20504;43.214;27.920;2023-03-04T01:11:53;92519.78;;;9.38;100.00
34243;BME280;20504;43.214;27.920;2023-03-04T01:14:19;92437.53;;;9.45;100.00
34243;BME280;20504;43.214;27.920;2023-03-04T01:16:46;92307.00;;;9.51;100.00
34243;BME280;20504;43.214;27.920;2023-03-04T01:19:11;92226.28;;;9.31;100.00
34243;BME280;20504;43.214;27.920;2023-03-04T01:21:37;92087.91;;;9.32;100.00
34243;BME280;20504;43.214;27.920;2023-03-04T01:24:02;91851.06;;;9.63;100.00
34243;BME280;20504;43.214;27.920;2023-03-04T01:26:28;91850.59;;;9.30;100.00
34243;BME280;20504;43.214;27.920;2023-03-04T01:28:53;91707.78;;;9.49;100.00
34243;BME280;20504;43.214;27.920;2023-03-04T01:31:19;91602.66;;;9.68;100.00
34243;BME280;20504;43.214;27.920;2023-03-04T01:33:44;91543.75;;;9.85;100.00
34243;BME280;20504;43.214;27.920;2023-03-04T01:36:10;91561.94;;;9.61;100.00
34243;BME280;20504;43.214;27.920;2023-03-04T01:38:35;91577.47;;;9.54;100.00
34243;BME280;20504;43.214;27.920;2023-03-04T01:41:01;91579.31;;;9.53;100.00
34243;BME280;20504;43.214;27.920;2023-03-04T01:43:28;91560.97;;;9.48;100.00
34243;BME280;20504;43.214;27.920;2023-03-04T01:45:55;91529.91;;;9.45;100.00
34243;BME280;20504;43.214;27.920;2023-03-04T01:48:28;91446.81;;;9.68;100.00
34243;BME280;20504;43.214;27.920;2023-03-04T01:50:54;91428.00;;;9.70;100.00
34243;BME280;20504;43.214;27.920;2023-03-04T01:53:25;91404.84;;;9.76;100.00
34243;BME280;20504;43.214;27.920;2023-03-04T01:56:04;91418.38;;;9.74;100.00
34243;BME280;20504;43.214;27.920;2023-03-04T01:58:35;91394.41;;;9.79;100.00
34243;BME280;20504;43.214;27.920;2023-03-04T02:01:01;91396.41;;;9.82;100.00
34243;BME280;20504;43.214;27.920;2023-03-04T02:03:27;91513.94;;;9.59;100.00
34243;BME280;20504;43.214;27.920;2023-03-04T02:05:54;91480.34;;;9.77;100.00
34243;BME280;20504;43.214;27.920;2023-03-04T02:08:22;91429.00;;;10.03;100.00
34243;BME280;20504;43.214;27.920;2023-03-04T02:10:49;91350.94;;;10.15;100.00
34243;BME280;20504;43.214;27.920;2023-03-04T02:13:15;91536.13;;;9.92;100.00
34243;BME280;20504;43.214;27.920;2023-03-04T02:15:42;91604.06;;;9.92;100.00
34243;BME280;20504;43.214;27.920;2023-03-04T02:18:17;91722.34;;;9.86;100.00
34243;BME280;20504;43.214;27.920;2023-03-04T02:26:21;91854.75;;;9.85;100.00
34243;BME280;20504;43.214;27.920;2023-03-04T02:28:49;91916.56;;;9.75;100.00
34243;BME280;20504;43.214;27.920;2023-03-04T02:36:39;91871.59;;;9.97;100.00
34243;BME280;20504;43.214;27.920;2023-03-04T02:39:31;91801.91;;;10.24;100.00
34243;BME280;20504;43.214;27.920;2023-03-04T02:41:57;91816.06;;;10.28;100.00
34243;BME280;20504;43.214;27.920;2023-03-04T02:44:29;91931.84;;;10.09;100.00
34243;BME280;20504;43.214;27.920;2023-03-04T02:46:56;91994.66;;;10.12;100.00
34243;BME280;20504;43.214;27.920;2023-03-04T02:49:23;92012.69;;;10.10;100.00
34243;BME280;20504;43.214;27.920;2023-03-04T02:51:51;92083.16;;;10.15;100.00
34243;BME280;20504;43.214;27.920;2023-03-04T02:54:21;92054.84;;;10.29;100.00
34243;BME280;20504;43.214;27.920;2023-03-04T02:56:50;92174.31;;;10.17;100.00
34243;BME280;20504;43.214;27.920;2023-03-04T02:59:16;92231.41;;;10.18;100.00
34243;BME280;20504;43.214;27.920;2023-03-04T03:01:42;92372.50;;;9.95;100.00
34243;BME280;20504;43.214;27.920;2023-03-04T03:04:08;92399.72;;;9.95;100.00
34243;BME280;20504;43.214;27.920;2023-03-04T03:06:34;92424.78;;;9.98;100.00
34243;BME280;20504;43.214;27.920;2023-03-04T03:08:59;92434.38;;;9.94;100.00
34243;BME280;20504;43.214;27.920;2023-03-04T03:11:24;92402.56;;;9.99;100.00
34243;BME280;20504;43.214;27.920;2023-03-04T03:13:50;92418.03;;;9.92;100.00
34243;BME280;20504;43.214;27.920;2023-03-04T03:16:16;92450.09;;;9.71;100.00
34243;BME280;20504;43.214;27.920;2023-03-04T03:18:41;92452.38;;;9.59;100.00
34243;BME280;20504;43.214;27.920;2023-03-04T03:21:07;92384.91;;;9.67;100.00
34243;BME280;20504;43.214;27.920;2023-03-04T03:23:33;92271.78;;;9.83;100.00
34243;BME280;20504;43.214;27.920;2023-03-04T03:25:59;92237.22;;;9.65;100.00
34243;BME280;20504;43.214;27.920;2023-03-04T03:28:24;92189.00;;;9.60;100.00
34243;BME280;20504;43.214;27.920;2023-03-04T03:30:50;92074.13;;;9.71;100.00
34243;BME280;20504;43.214;27.920;2023-03-04T03:33:15;91989.75;;;9.52;100.00
34243;BME280;20504;43.214;27.920;2023-03-04T03:35:41;91828.31;;;9.76;100.00
34243;BME280;20504;43.214;27.920;2023-03-04T03:38:06;91624.16;;;10.27;100.00
34243;BME280;20504;43.214;27.920;2023-03-04T03:40:32;91659.75;;;10.04;100.00
34243;BME280;20504;43.214;27.920;2023-03-04T03:42:57;91389.66;;;10.11;100.00
34243;BME280;20504;43.214;27.920;2023-03-04T03:45:23;91368.84;;;10.09;100.00
34243;BME280;20504;43.214;27.920;2023-03-04T03:47:48;91362.47;;;10.01;100.00
34243;BME280;20504;43.214;27.920;2023-03-04T03:50:13;91286.38;;;10.16;100.00
34243;BME280;20504;43.214;27.920;2023-03-04T03:52:39;91230.25;;;10.19;100.00
34243;BME280;20504;43.214;27.920;2023-03-04T03:55:05;91214.91;;;10.12;100.00
34243;BME280;20504;43.214;27.920;2023-03-04T03:57:30;91141.31;;;10.23;100.00
34243;BME280;20504;43.214;27.920;2023-03-04T03:59:56;91089.19;;;10.56;100.00
34243;BME280;20504;43.214;27.920;2023-03-04T04:02:21;91040.22;;;10.38;100.00
34243;BME280;20504;43.214;27.920;2023-03-04T04:04:47;91090.56;;;10.29;100.00
34243;BME280;20504;43.214;27.920;2023-03-04T04:07:13;91072.41;;;9.86;100.00
34243;BME280;20504;43.214;27.920;2023-03-04T04:09:38;91028.22;;;9.75;100.00
34243;BME280;20504;43.214;27.920;2023-03-04T04:12:07;90824.50;;;9.76;100.00
34243;BME280;20504;43.214;27.920;2023-03-04T04:14:33;90530.25;;;9.77;100.00
34243;BME280;20504;43.214;27.920;2023-03-04T04:16:59;90219.63;;;9.88;100.00
34243;BME280;20504;43.214;27.920;2023-03-04T04:19:25;89855.38;;;10.02;100.00
34243;BME280;20504;43.214;27.920;2023-03-04T04:21:50;89795.91;;;10.12;100.00
34243;BME280;20504;43.214;27.920;2023-03-04T04:24:16;89815.47;;;10.08;100.00
34243;BME280;20504;43.214;27.920;2023-03-04T04:26:42;89829.03;;;10.06;100.00
34243;BME280;20504;43.214;27.920;2023-03-04T04:29:08;89878.22;;;9.91;100.00
34243;BME280;20504;43.214;27.920;2023-03-04T04:31:34;89863.94;;;9.96;100.00
34243;BME280;20504;43.214;27.920;2023-03-04T04:34:00;89904.78;;;9.79;100.00
34243;BME280;20504;43.214;27.920;2023-03-04T04:36:26;89788.75;;;10.39;100.00
34243;BME280;20504;43.214;27.920;2023-03-04T04:38:51;89939.38;;;9.93;100.00
34243;BME280;20504;43.214;27.920;2023-03-04T04:41:26;89850.50;;;10.27;100.00
34243;BME280;20504;43.214;27.920;2023-03-04T04:43:52;89834.00;;;10.34;100.00
34243;BME280;20504;43.214;27.920;2023-03-04T04:46:18;89855.41;;;10.25;100.00
34243;BME280;20504;43.214;27.920;2023-03-04T04:48:43;89928.06;;;10.16;100.00
34243;BME280;20504;43.214;27.920;2023-03-04T04:51:10;89978.41;;;10.03;100.00
34243;BME280;20504;43.214;27.920;2023-03-04T04:53:36;89966.88;;;10.12;100.00
34243;BME280;20504;43.214;27.920;2023-03-04T04:56:12;90047.66;;;9.93;100.00
34243;BME280;20504;43.214;27.920;2023-03-04T04:58:38;90133.47;;;9.64;100.00
34243;BME280;20504;43.214;27.920;2023-03-04T05:01:04;90141.72;;;9.63;100.00
34243;BME280;20504;43.214;27.920;2023-03-04T05:03:31;90070.63;;;9.89;100.00
34243;BME280;20504;43.214;27.920;2023-03-04T05:05:56;90146.22;;;9.78;100.00
34243;BME280;20504;43.214;27.920;2023-03-04T05:08:22;90130.25;;;9.90;100.00
34243;BME280;20504;43.214;27.920;2023-03-04T05:10:47;90276.91;;;9.53;100.00
34243;BME280;20504;43.214;27.920;2023-03-04T05:13:13;90186.66;;;9.82;100.00
34243;BME280;20504;43.214;27.920;2023-03-04T05:15:38;90214.53;;;9.80;100.00
34243;BME280;20504;43.214;27.920;2023-03-04T05:18:03;90217.16;;;9.80;100.00
34243;BME280;20504;43.214;27.920;2023-03-04T05:20:29;90200.91;;;9.78;100.00
34243;BME280;20504;43.214;27.920;2023-03-04T05:22:54;90321.03;;;9.68;100.00
34243;BME280;20504;43.214;27.920;2023-03-04T05:25:20;90335.34;;;9.67;100.00
34243;BME280;20504;43.214;27.920;2023-03-04T05:27:45;90303.19;;;9.81;100.00
34243;BME280;20504;43.214;27.920;2023-03-04T05:30:11;90350.66;;;9.77;100.00
34243;BME280;20504;43.214;27.920;2023-03-04T05:32:37;90309.09;;;9.90;100.00
34243;BME280;20504;43.214;27.920;2023-03-04T05:35:02;90368.13;;;9.82;100.00
34243;BME280;20504;43.214;27.920;2023-03-04T05:37:28;90361.56;;;9.91;100.00
34243;BME280;20504;43.214;27.920;2023-03-04T05:39:53;90351.50;;;9.97;100.00
34243;BME280;20504;43.214;27.920;2023-03-04T05:42:19;90402.22;;;9.87;100.00
34243;BME280;20504;43.214;27.920;2023-03-04T05:44:44;90478.44;;;9.73;100.00
34243;BME280;20504;43.214;27.920;2023-03-04T05:47:10;90486.28;;;9.69;100.00
34243;BME280;20504;43.214;27.920;2023-03-04T05:49:35;90400.25;;;9.99;100.00
34243;BME280;20504;43.214;27.920;2023-03-04T05:52:01;90420.53;;;9.95;100.00
34243;BME280;20504;43.214;27.920;2023-03-04T05:54:26;90400.34;;;10.03;100.00
34243;BME280;20504;43.214;27.920;2023-03-04T05:56:52;90326.47;;;10.22;100.00
34243;BME280;20504;43.214;27.920;2023-03-04T05:59:19;90236.78;;;10.49;100.00
34243;BME280;20504;43.214;27.920;2023-03-04T06:01:45;89955.75;;;11.24;100.00
34243;BME280;20504;43.214;27.920;2023-03-04T06:04:11;89947.97;;;11.35;100.00
34243;BME280;20504;43.214;27.920;2023-03-04T06:06:36;90084.00;;;10.81;100.00
34243;BME280;20504;43.214;27.920;2023-03-04T06:09:02;90180.78;;;10.63;100.00
34243;BME280;20504;43.214;27.920;2023-03-04T06:11:28;89935.59;;;11.46;100.00
34243;BME280;20504;43.214;27.920;2023-03-04T06:13:54;89797.13;;;11.79;100.00
34243;BME280;20504;43.214;27.920;2023-03-04T06:16:19;89948.75;;;11.39;100.00
34243;BME280;20504;43.214;27.920;2023-03-04T06:18:45;89861.19;;;11.55;100.00
34243;BME280;20504;43.214;27.920;2023-03-04T06:21:11;89674.66;;;12.00;100.00
34243;BME280;20504;43.214;27.920;2023-03-04T06:23:36;89682.97;;;11.95;100.00
34243;BME280;20504;43.214;27.920;2023-03-04T06:26:02;89730.53;;;11.80;100.00
34243;BME280;20504;43.214;27.920;2023-03-04T06:28:28;89724.44;;;11.76;100.00
34243;BME280;20504;43.214;27.920;2023-03-04T06:30:55;89667.38;;;11.86;100.00
34243;BME280;20504;43.214;27.920;2023-03-04T06:33:20;89665.47;;;11.87;100.00
34243;BME280;20504;43.214;27.920;2023-03-04T06:35:46;89581.53;;;11.94;100.00
34243;BME280;20504;43.214;27.920;2023-03-04T06:38:12;89552.75;;;11.93;100.00
34243;BME280;20504;43.214;27.920;2023-03-04T06:40:38;89485.41;;;12.04;100.00
34243;BME280;20504;43.214;27.920;2023-03-04T06:43:04;89402.53;;;12.18;100.00
34243;BME280;20504;43.214;27.920;2023-03-04T06:45:30;89301.06;;;12.32;100.00
34243;BME280;20504;43.214;27.920;2023-03-04T06:47:55;89263.56;;;12.26;100.00
34243;BME280;20504;43.214;27.920;2023-03-04T06:50:21;89201.78;;;12.43;100.00
34243;BME280;20504;43.214;27.920;2023-03-04T06:52:46;89108.94;;;12.58;100.00
34243;BME280;20504;43.214;27.920;2023-03-04T06:55:13;89095.66;;;12.61;100.00
34243;BME280;20504;43.214;27.920;2023-03-04T06:57:38;89002.38;;;12.73;100.00
34243;BME280;20504;43.214;27.920;2023-03-04T07:00:04;88995.16;;;12.78;100.00
34243;BME280;20504;43.214;27.920;2023-03-04T07:02:30;88916.13;;;13.03;100.00
34243;BME280;20504;43.214;27.920;2023-03-04T07:04:56;89840.97;;;12.68;100.00
34243;BME280;20504;43.214;27.920;2023-03-04T07:07:21;90490.00;;;12.57;100.00
34243;BME280;20504;43.214;27.920;2023-03-04T07:09:47;90783.03;;;12.44;100.00
34243;BME280;20504;43.214;27.920;2023-03-04T07:12:13;91305.06;;;12.38;100.00
34243;BME280;20504;43.214;27.920;2023-03-04T07:14:38;91732.22;;;12.51;100.00
34243;BME280;20504;43.214;27.920;2023-03-04T07:17:04;92180.03;;;12.36;100.00
34243;BME280;20504;43.214;27.920;2023-03-04T07:19:29;93543.91;;;12.52;100.00
34243;BME280;20504;43.214;27.920;2023-03-04T07:21:55;93582.72;;;12.42;100.00
34243;BME280;20504;43.214;27.920;2023-03-04T07:24:20;93544.38;;;12.30;100.00
34243;BME280;20504;43.214;27.920;2023-03-04T07:26:46;93592.38;;;12.33;100.00
34243;BME280;20504;43.214;27.920;2023-03-04T07:29:12;93663.28;;;12.28;100.00
34243;BME280;20504;43.214;27.920;2023-03-04T07:31:37;93522.16;;;12.50;100.00
34243;BME280;20504;43.214;27.920;2023-03-04T07:34:06;93604.13;;;12.27;100.00
34243;BME280;20504;43.214;27.920;2023-03-04T07:36:33;93582.19;;;12.46;100.00
34243;BME280;20504;43.214;27.920;2023-03-04T07:38:59;93726.44;;;12.26;100.00
34243;BME280;20504;43.214;27.920;2023-03-04T07:41:26;93741.81;;;12.34;100.00
34243;BME280;20504;43.214;27.920;2023-03-04T07:43:52;93716.44;;;12.57;100.00
34243;BME280;20504;43.214;27.920;2023-03-04T07:46:18;93599.91;;;12.55;100.00
34243;BME280;20504;43.214;27.920;2023-03-04T07:48:44;93540.69;;;12.55;100.00
34243;BME280;20504;43.214;27.920;2023-03-04T07:53:39;93402.09;;;12.77;100.00
34243;BME280;20504;43.214;27.920;2023-03-04T07:56:07;93369.25;;;12.91;100.00
34243;BME280;20504;43.214;27.920;2023-03-04T07:58:33;93046.38;;;13.13;100.00
34243;BME280;20504;43.214;27.920;2023-03-04T08:00:58;93078.34;;;13.08;100.00
34243;BME280;20504;43.214;27.920;2023-03-04T08:03:24;92951.94;;;13.20;100.00
34243;BME280;20504;43.214;27.920;2023-03-04T08:05:50;92938.84;;;12.96;100.00
34243;BME280;20504;43.214;27.920;2023-03-04T08:08:15;93024.22;;;12.90;100.00
34243;BME280;20504;43.214;27.920;2023-03-04T08:10:41;93009.78;;;13.10;100.00
34243;BME280;20504;43.214;27.920;2023-03-04T08:13:07;92831.81;;;13.32;100.00
34243;BME280;20504;43.214;27.920;2023-03-04T08:15:33;92917.81;;;13.36;100.00
34243;BME280;20504;43.214;27.920;2023-03-04T08:18:00;92895.72;;;13.27;100.00
34243;BME280;20504;43.214;27.920;2023-03-04T08:20:27;93152.59;;;13.18;100.00
34243;BME280;20504;43.214;27.920;2023-03-04T08:22:52;93354.03;;;13.16;100.00
34243;BME280;20504;43.214;27.920;2023-03-04T08:25:18;93551.25;;;13.37;100.00
34243;BME280;20504;43.214;27.920;2023-03-04T08:27:43;93752.06;;;13.29;100.00
34243;BME280;20504;43.214;27.920;2023-03-04T08:30:10;93913.09;;;13.40;100.00
34243;BME280;20504;43.214;27.920;2023-03-04T08:32:35;94084.09;;;13.15;100.00
34243;BME280;20504;43.214;27.920;2023-03-04T08:35:01;94236.94;;;13.33;100.00
34243;BME280;20504;43.214;27.920;2023-03-04T08:37:28;94436.88;;;13.25;100.00
34243;BME280;20504;43.214;27.920;2023-03-04T08:39:54;94608.06;;;13.19;100.00
34243;BME280;20504;43.214;27.920;2023-03-04T08:42:19;94685.47;;;13.27;100.00
34243;BME280;20504;43.214;27.920;2023-03-04T08:44:45;94736.00;;;13.27;100.00
34243;BME280;20504;43.214;27.920;2023-03-04T08:47:10;94805.31;;;13.53;100.00
34243;BME280;20504;43.214;27.920;2023-03-04T08:49:36;94870.72;;;13.81;100.00
34243;BME280;20504;43.214;27.920;2023-03-04T08:52:02;95085.81;;;13.62;100.00
34243;BME280;20504;43.214;27.920;2023-03-04T08:54:28;95362.09;;;13.20;100.00
34243;BME280;20504;43.214;27.920;2023-03-04T08:56:53;95477.22;;;13.32;100.00
34243;BME280;20504;43.214;27.920;2023-03-04T08:59:19;95667.69;;;13.21;100.00
34243;BME280;20504;43.214;27.920;2023-03-04T09:01:44;95617.31;;;13.55;100.00
34243;BME280;20504;43.214;27.920;2023-03-04T09:04:10;95642.38;;;13.71;100.00
34243;BME280;20504;43.214;27.920;2023-03-04T09:06:35;95811.22;;;13.63;100.00
34243;BME280;20504;43.214;27.920;2023-03-04T09:09:01;95834.22;;;13.92;100.00
34243;BME280;20504;43.214;27.920;2023-03-04T09:11:28;95865.44;;;14.20;100.00
34243;BME280;20504;43.214;27.920;2023-03-04T09:13:54;95982.78;;;14.25;100.00
34243;BME280;20504;43.214;27.920;2023-03-04T09:16:19;96188.28;;;13.99;100.00
34243;BME280;20504;43.214;27.920;2023-03-04T09:18:45;96309.16;;;13.98;100.00
34243;BME280;20504;43.214;27.920;2023-03-04T09:21:10;96266.16;;;14.43;100.00
34243;BME280;20504;43.214;27.920;2023-03-04T09:23:36;96421.38;;;14.45;100.00
34243;BME280;20504;43.214;27.920;2023-03-04T09:26:23;96502.91;;;14.71;100.00
34243;BME280;20504;43.214;27.920;2023-03-04T09:28:52;96803.66;;;14.17;100.00
34243;BME280;20504;43.214;27.920;2023-03-04T09:31:18;96780.38;;;14.38;100.00
34243;BME280;20504;43.214;27.920;2023-03-04T09:33:44;96832.63;;;14.52;100.00
34243;BME280;20504;43.214;27.920;2023-03-04T09:36:11;96823.22;;;14.81;100.00
34243;BME280;20504;43.214;27.920;2023-03-04T09:38:37;96995.22;;;14.59;100.00
34243;BME280;20504;43.214;27.920;2023-03-04T09:41:06;97094.28;;;14.56;100.00
34243;BME280;20504;43.214;27.920;2023-03-04T09:43:32;97070.00;;;14.97;100.00
34243;BME280;20504;43.214;27.920;2023-03-04T09:46:01;96994.13;;;15.24;100.00
34243;BME280;20504;43.214;27.920;2023-03-04T09:48:29;97132.72;;;15.19;100.00
34243;BME280;20504;43.214;27.920;2023-03-04T09:51:08;97142.09;;;15.41;100.00
34243;BME280;20504;43.214;27.920;2023-03-04T09:54:20;97105.06;;;15.58;100.00
34243;BME280;20504;43.214;27.920;2023-03-04T09:56:50;97084.00;;;15.82;100.00
34243;BME280;20504;43.214;27.920;2023-03-04T09:59:34;97143.59;;;15.82;100.00
34243;BME280;20504;43.214;27.920;2023-03-04T10:02:21;97232.25;;;15.53;100.00
34243;BME280;20504;43.214;27.920;2023-03-04T10:04:57;97287.50;;;15.39;100.00
34243;BME280;20504;43.214;27.920;2023-03-04T10:07:33;97277.25;;;15.29;100.00
34243;BME280;20504;43.214;27.920;2023-03-04T10:10:13;97301.50;;;15.08;100.00
34243;BME280;20504;43.214;27.920;2023-03-04T10:12:43;97271.13;;;15.09;100.00
34243;BME280;20504;43.214;27.920;2023-03-04T10:15:42;97211.13;;;15.31;100.00
34243;BME280;20504;43.214;27.920;2023-03-04T10:18:15;97119.03;;;15.54;100.00
34243;BME280;20504;43.214;27.920;2023-03-04T10:21:03;97046.06;;;15.98;100.00
34243;BME280;20504;43.214;27.920;2023-03-04T10:23:32;97191.06;;;15.80;100.00
34243;BME280;20504;43.214;27.920;2023-03-04T10:25:59;97115.75;;;16.28;100.00
34243;BME280;20504;43.214;27.920;2023-03-04T10:28:33;97244.63;;;16.05;100.00
34243;BME280;20504;43.214;27.920;2023-03-04T10:31:11;97219.38;;;16.32;100.00
34243;BME280;20504;43.214;27.920;2023-03-04T10:33:40;97250.19;;;16.35;100.00
34243;BME280;20504;43.214;27.920;2023-03-04T10:36:26;97256.50;;;16.47;100.00
34243;BME280;20504;43.214;27.920;2023-03-04T10:39:00;97221.41;;;16.69;100.00
34243;BME280;20504;43.214;27.920;2023-03-04T10:41:29;97181.38;;;17.05;100.00
34243;BME280;20504;43.214;27.920;2023-03-04T10:44:10;97223.13;;;17.13;100.00
34243;BME280;20504;43.214;27.920;2023-03-04T10:46:46;97153.31;;;17.51;100.00
34243;BME280;20504;43.214;27.920;2023-03-04T10:49:15;97238.50;;;17.61;100.00
34243;BME280;20504;43.214;27.920;2023-03-04T10:51:44;97282.16;;;17.68;100.00
34243;BME280;20504;43.214;27.920;2023-03-04T10:57:10;97415.47;;;17.41;100.00
34243;BME280;20504;43.214;27.920;2023-03-04T10:59:55;97366.81;;;17.44;100.00
34243;BME280;20504;43.214;27.920;2023-03-04T11:02:26;97327.50;;;17.69;100.00
34243;BME280;20504;43.214;27.920;2023-03-04T11:05:03;97261.94;;;18.02;100.00
34243;BME280;20504;43.214;27.920;2023-03-04T11:07:30;97332.09;;;17.99;100.00
34243;BME280;20504;43.214;27.920;2023-03-04T11:10:07;97365.09;;;17.99;100.00
34243;BME280;20504;43.214;27.920;2023-03-04T11:12:33;97389.44;;;17.98;100.00
34243;BME280;20504;43.214;27.920;2023-03-04T11:14:59;97374.13;;;17.87;100.00
34243;BME280;20504;43.214;27.920;2023-03-04T11:17:27;97326.13;;;17.78;100.00
34243;BME280;20504;43.214;27.920;2023-03-04T11:20:00;97269.94;;;17.72;100.00
34243;BME280;20504;43.214;27.920;2023-03-04T11:22:30;97281.19;;;17.37;100.00
34243;BME280;20504;43.214;27.920;2023-03-04T11:25:24;97185.59;;;17.56;100.00
34243;BME280;20504;43.214;27.920;2023-03-04T11:27:57;97112.78;;;17.77;100.00
34243;BME280;20504;43.214;27.920;2023-03-04T11:30:44;97095.66;;;18.08;100.00
34243;BME280;20504;43.214;27.920;2023-03-04T11:33:13;97180.91;;;17.88;100.00
34243;BME280;20504;43.214;27.920;2023-03-04T11:38:37;97047.09;;;18.52;100.00
34243;BME280;20504;43.214;27.920;2023-03-04T11:41:10;97057.84;;;18.75;100.00
34243;BME280;20504;43.214;27.920;2023-03-04T11:43:41;97105.56;;;18.96;100.00
34243;BME280;20504;43.214;27.920;2023-03-04T11:46:51;97180.97;;;19.06;100.00
34243;BME280;20504;43.214;27.920;2023-03-04T11:52:05;97502.59;;;18.50;100.00
34243;BME280;20504;43.214;27.920;2023-03-04T12:11:05;97678.66;;;18.51;100.00
34243;BME280;20504;43.214;27.920;2023-03-04T12:14:06;97629.44;;;18.07;100.00
34243;BME280;20504;43.214;27.920;2023-03-04T12:16:47;97544.44;;;17.82;100.00
34243;BME280;20504;43.214;27.920;2023-03-04T12:32:47;97618.28;;;17.20;100.00
34243;BME280;20504;43.214;27.920;2023-03-04T12:38:11;97586.69;;;16.64;100.00
34243;BME280;20504;43.214;27.920;2023-03-04T12:43:41;97489.00;;;16.35;100.00
34243;BME280;20504;43.214;27.920;2023-03-04T12:46:24;97585.88;;;15.85;100.00
34243;BME280;20504;43.214;27.920;2023-03-04T12:48:55;97424.72;;;16.04;100.00
34243;BME280;20504;43.214;27.920;2023-03-04T12:57:04;97270.06;;;15.63;100.00
34243;BME280;20504;43.214;27.920;2023-03-04T12:59:42;97327.16;;;15.22;100.00
34243;BME280;20504;43.214;27.920;2023-03-04T13:04:58;97187.38;;;15.10;100.00
34243;BME280;20504;43.214;27.920;2023-03-04T13:07:55;97093.38;;;15.08;100.00
34243;BME280;20504;43.214;27.920;2023-03-04T13:10:25;97068.78;;;14.93;100.00
34243;BME280;20504;43.214;27.920;2023-03-04T13:12:52;96999.38;;;14.99;100.00
34243;BME280;20504;43.214;27.920;2023-03-04T13:20:34;96924.09;;;14.52;100.00
34243;BME280;20504;43.214;27.920;2023-03-04T13:25:46;96617.16;;;15.10;100.00
34243;BME280;20504;43.214;27.920;2023-03-04T13:33:55;96316.25;;;17.15;100.00
34243;BME280;20504;43.214;27.920;2023-03-04T13:36:51;96467.13;;;17.54;100.00
34243;BME280;20504;43.214;27.920;2023-03-04T13:41:49;96467.28;;;19.79;100.00
34243;BME280;20504;43.214;27.920;2023-03-04T13:47:41;97171.03;;;19.42;100.00
34243;BME280;20504;43.214;27.920;2023-03-04T13:50:23;97366.13;;;19.01;100.00
34243;BME280;20504;43.214;27.920;2023-03-04T13:52:56;97431.22;;;18.85;100.00
34243;BME280;20504;43.214;27.920;2023-03-04T13:57:59;97412.28;;;18.62;100.00
34243;BME280;20504;43.214;27.920;2023-03-04T14:00:27;97271.00;;;19.44;100.00
34243;BME280;20504;43.214;27.920;2023-03-04T14:02:53;97436.81;;;19.14;100.00
34243;BME280;20504;43.214;27.920;2023-03-04T14:05:27;97617.97;;;18.50;100.00
34243;BME280;20504;43.214;27.920;2023-03-04T14:07:56;97688.63;;;18.12;100.00
34243;BME280;20504;43.214;27.920;2023-03-04T14:10:41;97684.06;;;17.74;100.00
34243;BME280;20504;43.214;27.920;2023-03-04T14:13:09;97689.91;;;17.45;100.00
34243;BME280;20504;43.214;27.920;2023-03-04T14:15:35;97743.34;;;17.00;100.00
34243;BME280;20504;43.214;27.920;2023-03-04T14:18:03;97737.13;;;16.60;100.00